Portada
METAR-TAF:

METAR-TAF

Aeropuertos :

Aeropuerto Internacional General José Antonio Anzoátegui

Barcelona, Venezuela

latitud: 10-07N, longitud: 064-41W, altitud: 7 m

Observación

El informe se hizo hace 39 minutos, a las 16:02 UTC
Temperatura
Presión

METAR: SVBC 111602Z AUTO NIL

Hora: 12:41 (16:41 UTC)

Pronóstico

El informe se hizo hace 18 horas y 41 minutos, a las 22:00 UTC
Pronóstico válido del 11 a las 00 UTC al 12 a las 00 UTC
Viento 6 kt del noreste
Visibilidad 10 km o más
Nubes dispersas a una altura de 1600 ft
Temporalmente
del 11 a las 00 UTC al 11 a las 04 UTC
Viento 5 kt del este
Visibilidad 10 km o más
Nubes dispersas a una altura de 1600 ft

TAF: SVBC 102200Z 1100/1200 05006KT 9999 SCT016 TX32/19Z TN23/08Z TEMPO 1100/1104 10005KT 9999 SCT016

Observaciones y pronósticos meteorológicos de más de 4000 aeropuertos (mensajes METAR y TAF).

Los puntos amarillos y rojos representan las estaciones disponibles.

Ponga el ratón en el punto deseado para ver el nombre de la estación.

Haga clic para ver las observaciones y los pronósticos meteorológicos.

Para cambiar el mapa : haga clic en los botones verdes con una cruz de color negro para hacer un zoom, en el botón verde con un guión para alejar o en las flechas verdes para mapas adyacentes.


METAR-TAF: